Всего рекордов
105094
Основных рекордов
91124
Бонусных рекордов
13970
Всего карт
303

Последние 100 рекордов

Игрок Карта Дата Время Путь Стиль Прыжков Стрейфов Поинтов
pit stop? 0y0t00❤ bhop_noobhop_ExG 3 мая 2026 г, 05:34 1 мин. 35 сек. Основной Easy 88 258 19.1737
zORRo bhop_noobhop_ExG 3 мая 2026 г, 05:33 1 мин. 34 сек. Основной SpeedRun 81 109 6.43203
yoyo bhop_noobhop_ExG 3 мая 2026 г, 05:32 16 сек. Бонус Only-parachute 14 35 15.373
Даня bhop_noobhop_ExG 3 мая 2026 г, 05:31 58 сек. Основной Easy 39 102 31.1404
noobMaster69 bhop_noobhop_ExG 3 мая 2026 г, 05:29 1 мин. 17 сек. Основной Normal 103 175 45.183
14 bhop_noobhop_ExG 3 мая 2026 г, 05:29 56 сек. Основной Hard 76 122 71.6303
Даня bhop_noobhop_ExG 3 мая 2026 г, 05:28 20 сек. Бонус Easy 10 22 7.98254
yoyo bhop_triumph 3 мая 2026 г, 05:23 5 сек. Бонус SpeedRunSEG 0 7 0
Babl) bhop_triumph 3 мая 2026 г, 05:07 6 сек. Бонус SpeedRunSEG 1 6 0
Babl) bhop_triumph 3 мая 2026 г, 05:06 9 сек. Бонус Easy 1 8 10.3996
Даня bhop_strafe_sewer_v34 3 мая 2026 г, 05:01 41 сек. Основной Easy 30 67 24.8305
Propovednik bhop_strafe_sewer_v34 3 мая 2026 г, 05:00 35 сек. Основной Easy 26 69 29.4868
Даня bhop_tex 3 мая 2026 г, 04:55 3 мин. 50 сек. Основной Easy 157 290 15.2652
Propovednik bhop_horseshit_1_v34 3 мая 2026 г, 04:50 36 сек. Основной Easy 24 66 39.407
Даня bhop_horseshit_1_v34 3 мая 2026 г, 04:50 37 сек. Основной Easy 26 41 38.3386
Даня bhop_lostchristmas_v2_v34 3 мая 2026 г, 04:47 2 мин. 31 сек. Основной Easy 90 220 29.0275
Propovednik bhop_lostchristmas_v2_v34 3 мая 2026 г, 04:41 2 мин. 12 сек. Основной Easy 80 197 33.3402
Babl) bhop_shock_v2 3 мая 2026 г, 04:37 1 мин. 13 сек. Основной Easy 55 96 42.5896
Babl) bhop_shock_v2 3 мая 2026 г, 04:31 4 мин. 11 сек. Основной Hard 316 278 30.8761
FaNTiK? bhop_shock_v2 3 мая 2026 г, 04:28 1 мин. 28 сек. Основной Hard 111 205 88.2522
FaNTiK? bhop_linear_gif_v34 3 мая 2026 г, 04:22 2 мин. 9 сек. Основной Hard 160 222 113.937
satana bhop_linear_gif_v34 3 мая 2026 г, 04:20 51 сек. Основной Easy 31 93 103.418
Kacnuuckuu_Lemon4ik bhop_linear_gif_v34 3 мая 2026 г, 04:17 1 мин. Основной Easy 48 69 88.0224
FaNTiK? bhop_linear_gif_v34 3 мая 2026 г, 04:15 1 мин. 21 сек. Основной Easy 56 100 65.4513
Даня bhop_carotte_v34 3 мая 2026 г, 04:09 43 сек. Основной doublejumps 40 74 63.023
Мишка bhop_carotte_v34 3 мая 2026 г, 04:08 1 мин. 42 сек. Основной SpeedRun 87 77 1.07702
Kacnuuckuu_Lemon4ik bhop_carotte_v34 3 мая 2026 г, 04:04 36 сек. Основной Easy 30 43 25.8192
hasan154rus bhop_carotte_v34 3 мая 2026 г, 04:03 58 сек. Основной SpeedRun 56 65 1.89036
Kacnuuckuu_Lemon4ik bhop_carotte_v34 3 мая 2026 г, 04:01 42 сек. Основной Only-parachute 52 53 52.8305
Даня bhop_carotte_v34 3 мая 2026 г, 04:01 43 сек. Основной Easy 32 74 22.0393
Kacnuuckuu_Lemon4ik bhop_ripchy 3 мая 2026 г, 03:59 40 сек. Основной Only-parachute 33 48 14.2922
Даня bhop_ripchy 3 мая 2026 г, 03:59 1 мин. 6 сек. Основной Easy 47 100 22.9709
14 bhop_ripchy 3 мая 2026 г, 03:58 32 сек. Основной Hard 39 74 108.683
Kacnuuckuu_Lemon4ik bhop_ripchy 3 мая 2026 г, 03:58 15 сек. Основной SpeedRunSEG 10 18 0
hasan154rus bhop_ripchy 3 мая 2026 г, 03:56 30 сек. Основной SpeedRun 23 39 10.409
Kacnuuckuu_Lemon4ik bhop_ripchy 3 мая 2026 г, 03:56 37 сек. Основной Easy 24 44 40.6551
Alien. bhop_ripchy 3 мая 2026 г, 03:55 41 сек. Основной Easy 34 41 36.8495
Даня bhop_z_v34 3 мая 2026 г, 03:54 2 мин. 23 сек. Основной Easy 112 183 12.9745
Alien. bhop_z_v34 3 мая 2026 г, 03:54 5 мин. 18 сек. Основной Easy 338 313 5.84674
Даня bhop_z_v34 3 мая 2026 г, 03:48 10 сек. Бонус Easy 10 27 11.5676
Даня bhop_z_v34 3 мая 2026 г, 03:48 13 сек. Бонус Normal 17 27 12.8432
Kacnuuckuu_Lemon4ik bhop_z_v34 3 мая 2026 г, 03:47 4 сек. Бонус SpeedRunSEG 3 7 0
Kacnuuckuu_Lemon4ik bhop_z_v34 3 мая 2026 г, 03:45 10 сек. Бонус Easy 11 17 11.3123
Kacnuuckuu_Lemon4ik bhop_z_v34 3 мая 2026 г, 03:45 2 мин. 35 сек. Основной Easy 125 173 11.9602
Kacnuuckuu_Lemon4ik bhop_coefficient_v34 3 мая 2026 г, 03:42 7 сек. Основной SpeedRunSEG 6 9 0
Даня bhop_coefficient_v34 3 мая 2026 г, 03:41 16 сек. Основной Easy 11 19 41.4669
Alien. bhop_coefficient_v34 3 мая 2026 г, 03:40 17 сек. Основной Easy 18 22 37.7981
hasan154rus bhop_coefficient_v34 3 мая 2026 г, 03:40 36 сек. Основной SpeedRun 40 57 2.67583
Kacnuuckuu_Lemon4ik bhop_coefficient_v34 3 мая 2026 г, 03:39 15 сек. Основной Easy 11 23 42.3044
Alien. bhop_consistancy_fix 3 мая 2026 г, 03:39 6 мин. 15 сек. Основной Easy 281 347 14.1186
Даня bhop_consistancy_fix 3 мая 2026 г, 03:38 1 мин. 55 сек. Основной Easy 55 148 45.9766
hasan154rus bhop_consistancy_fix 3 мая 2026 г, 03:35 2 мин. 54 сек. Основной SpeedRun 111 202 18.0205
katya bhop_fur 3 мая 2026 г, 03:30 1 мин. 47 сек. Основной Easy 82 180 276.116
hasan154rus bhop_terra 3 мая 2026 г, 03:13 12 сек. Бонус SpeedRun 8 4 1.81141
hasan154rus bhop_terra 3 мая 2026 г, 03:10 1 мин. 6 сек. Основной SpeedRun 55 82 15.6866
hasan154rus bhop_medusozoa 3 мая 2026 г, 03:06 6 мин. 59 сек. Основной SpeedRun 298 457 2.30595
hasan154rus bhop_0 3 мая 2026 г, 02:52 2 мин. 57 сек. Основной SpeedRun 99 121 1.74078
ХАНБЕК СЕРГЕЙ bhop_red 3 мая 2026 г, 02:48 8 мин. 19 сек. Основной Easy 207 137 1.58053
weak bhop_red 3 мая 2026 г, 02:39 1 мин. 19 сек. Основной Hard 92 96 21.6381
katya bhop_red 3 мая 2026 г, 02:36 12 сек. Основной Easy 14 36 68.1184
hasan154rus bhop_red 3 мая 2026 г, 02:34 37 сек. Основной SpeedRun 34 37 3.32415
katya bhop_monument_valley_34 3 мая 2026 г, 02:16 42 сек. Основной Easy 33 88 137.373
Tatarstan|Kazan 716rus bhop_monument_valley_34 3 мая 2026 г, 02:16 2 мин. 40 сек. Основной Easy 111 120 36.168
krasav4ik bhop_monument_valley_34 3 мая 2026 г, 02:00 47 сек. Основной Easy 35 83 123.023
unnamed bhop_clove_v34 3 мая 2026 г, 01:21 2 мин. 33 сек. Основной Easy 111 155 13.4721
навальный bhop_clove_v34 3 мая 2026 г, 01:18 1 мин. 5 сек. Основной Easy 41 0 31.6169
навальный bhop_clove_v34 3 мая 2026 г, 01:14 1 мин. 53 сек. Основной SpeedRun 71 16 41.2662
Propovednik bhop_clove_v34 3 мая 2026 г, 01:10 2 мин. 37 сек. Основной Easy 116 232 13.0774
krasav4ik bhop_clove_v34 3 мая 2026 г, 00:57 30 сек. Основной Easy 25 71 69.2063
Передознутый bhop_trains_retextured 3 мая 2026 г, 00:50 32 сек. Основной Low Gravity 26 94 109.768
днгиднг сщаау bhop_trains_retextured 3 мая 2026 г, 00:50 39 сек. Основной Hard 53 103 87.9201
навальный bhop_trains_retextured 3 мая 2026 г, 00:49 9 сек. Основной SpeedRun 9 0 34.8807
брат lackfaer bhop_trains_retextured 3 мая 2026 г, 00:47 33 сек. Основной Hard 43 78 105.939
unnamed bhop_trains_retextured 3 мая 2026 г, 00:45 46 сек. Основной Easy 57 57 31.5992
брат lackfaer bhop_trains_retextured 3 мая 2026 г, 00:44 33 сек. Основной Low Gravity 26 92 109.364
навальный bhop_trains_retextured 3 мая 2026 г, 00:42 56 сек. Основной Half-Sideways 74 55 64.3632
брат lackfaer bhop_trains_retextured 3 мая 2026 г, 00:42 33 сек. Основной Only-parachute 37 100 77.5273
zxckrest1ka bhop_trains_retextured 3 мая 2026 г, 00:42 1 мин. 7 сек. Основной Easy 86 157 21.6994
Передознутый bhop_trains_retextured 3 мая 2026 г, 00:41 32 сек. Основной Only-parachute 41 97 78.1257
lackfaer. bhop_trains_retextured 3 мая 2026 г, 00:40 33 сек. Основной Hard 44 103 104.367
dn1she bhop_aura 3 мая 2026 г, 00:20 56 сек. Основной Easy 39 86 37.4962
брат lackfaer bhop_aura 3 мая 2026 г, 00:18 32 сек. Основной Easy 32 64 64.5084
krasav4ik bhop_aura 3 мая 2026 г, 00:17 30 сек. Основной Easy 31 55 69.2392
Ivan1ch bhop_aura 3 мая 2026 г, 00:14 1 мин. 19 сек. Основной Easy 59 76 26.5613
брат lackfaer bhop_aura 3 мая 2026 г, 00:10 43 сек. Основной Only-parachute 40 156 85.6437
Передознутый bhop_aura 3 мая 2026 г, 00:10 43 сек. Основной Only-parachute 38 141 85.6038
z0nG bhop_aura 3 мая 2026 г, 00:07 1 мин. 23 сек. Основной Easy 63 154 25.3622
code80 bhop_aura 3 мая 2026 г, 00:07 56 сек. Основной Easy 51 88 37.5231
брат lackfaer bhop_temple 3 мая 2026 г, 00:04 22 сек. Основной Only-parachute 24 50 84.0804
навальный bhop_temple 3 мая 2026 г, 00:04 34 сек. Основной Easy 25 0 31.8033
zxckrest1ka bhop_temple 3 мая 2026 г, 00:03 6 мин. 57 сек. Основной Easy 335 546 2.55276
навальный bhop_temple 3 мая 2026 г, 00:03 7 мин. 22 сек. Основной Half-Sideways 500 592 6.03121
afek4 bhop_temple 2 мая 2026 г, 23:56 47 сек. Основной Normal 58 100 47.4759
touchpad player bhop_temple 2 мая 2026 г, 23:52 28 сек. Основной Easy 21 60 37.7647
Передознутый bhop_sjopa_sgorit 2 мая 2026 г, 23:48 31 мин. 20 сек. Основной Segmented 2660 3184 0
krasav4ik bhop_sjopa_sgorit 2 мая 2026 г, 23:19 18 мин. 9 сек. Основной Easy 1168 1551 469.822
Дочь bhop_blue 2 мая 2026 г, 22:42 51 сек. Основной Easy 29 50 25.561
егор пузо bhop_blue 2 мая 2026 г, 22:42 37 сек. Основной Easy 22 59 35.3517
krasav4ik bhop_blue 2 мая 2026 г, 22:41 19 сек. Основной Easy 16 30 68.5656
брат lackfaer bhop_rooster 2 мая 2026 г, 22:30 41 сек. Основной Only-parachute 34 124 85.4802